sensor_id;sensor_type;location;lat;lon;timestamp;temperature;humidity
2995;DHT22;35277;49.890;8.222;2023-06-19T00:01:38;28.30;57.70
2995;DHT22;35277;49.890;8.222;2023-06-19T00:04:06;28.30;57.70
2995;DHT22;35277;49.890;8.222;2023-06-19T00:06:34;28.30;57.70
2995;DHT22;35277;49.890;8.222;2023-06-19T00:09:02;28.30;57.70
2995;DHT22;35277;49.890;8.222;2023-06-19T00:11:31;28.30;57.70
2995;DHT22;35277;49.890;8.222;2023-06-19T00:13:59;28.30;57.70
2995;DHT22;35277;49.890;8.222;2023-06-19T00:16:27;28.30;57.70
2995;DHT22;35277;49.890;8.222;2023-06-19T00:18:55;28.30;57.70
2995;DHT22;35277;49.890;8.222;2023-06-19T00:21:23;28.30;57.80
2995;DHT22;35277;49.890;8.222;2023-06-19T00:23:52;28.30;57.70
2995;DHT22;35277;49.890;8.222;2023-06-19T00:26:20;28.30;57.70
2995;DHT22;35277;49.890;8.222;2023-06-19T00:28:50;28.30;57.80
2995;DHT22;35277;49.890;8.222;2023-06-19T00:31:18;28.30;57.70
2995;DHT22;35277;49.890;8.222;2023-06-19T00:33:48;28.30;57.80
2995;DHT22;35277;49.890;8.222;2023-06-19T00:36:17;28.30;57.80
2995;DHT22;35277;49.890;8.222;2023-06-19T00:38:47;28.30;57.80
2995;DHT22;35277;49.890;8.222;2023-06-19T00:41:15;28.30;57.80
2995;DHT22;35277;49.890;8.222;2023-06-19T00:43:44;28.30;57.80
2995;DHT22;35277;49.890;8.222;2023-06-19T00:46:13;28.30;57.80
2995;DHT22;35277;49.890;8.222;2023-06-19T00:48:41;28.30;57.80
2995;DHT22;35277;49.890;8.222;2023-06-19T00:51:09;28.30;57.90
2995;DHT22;35277;49.890;8.222;2023-06-19T00:53:38;28.30;57.90
2995;DHT22;35277;49.890;8.222;2023-06-19T00:56:06;28.30;57.90
2995;DHT22;35277;49.890;8.222;2023-06-19T00:58:33;28.30;57.90
2995;DHT22;35277;49.890;8.222;2023-06-19T01:01:01;28.30;57.90
2995;DHT22;35277;49.890;8.222;2023-06-19T01:03:36;28.30;57.90
2995;DHT22;35277;49.890;8.222;2023-06-19T01:06:09;28.30;57.90
2995;DHT22;35277;49.890;8.222;2023-06-19T01:08:45;28.30;57.90
2995;DHT22;35277;49.890;8.222;2023-06-19T01:11:19;28.30;57.90
2995;DHT22;35277;49.890;8.222;2023-06-19T01:13:55;28.30;57.90
2995;DHT22;35277;49.890;8.222;2023-06-19T01:16:26;28.30;57.90
2995;DHT22;35277;49.890;8.222;2023-06-19T01:18:57;28.30;57.90
2995;DHT22;35277;49.890;8.222;2023-06-19T01:21:25;28.30;57.90
2995;DHT22;35277;49.890;8.222;2023-06-19T01:23:56;28.30;57.90
2995;DHT22;35277;49.890;8.222;2023-06-19T01:26:24;28.30;57.90
2995;DHT22;35277;49.890;8.222;2023-06-19T01:28:54;28.30;57.90
2995;DHT22;35277;49.890;8.222;2023-06-19T01:31:25;28.30;57.90
2995;DHT22;35277;49.890;8.222;2023-06-19T01:33:57;28.30;57.90
2995;DHT22;35277;49.890;8.222;2023-06-19T01:36:26;28.30;57.90
2995;DHT22;35277;49.890;8.222;2023-06-19T01:39:00;28.30;57.90
2995;DHT22;35277;49.890;8.222;2023-06-19T01:41:32;28.30;57.90
2995;DHT22;35277;49.890;8.222;2023-06-19T01:44:00;28.30;57.90
2995;DHT22;35277;49.890;8.222;2023-06-19T01:46:28;28.30;57.90
2995;DHT22;35277;49.890;8.222;2023-06-19T01:48:56;28.30;57.90
2995;DHT22;35277;49.890;8.222;2023-06-19T01:51:25;28.30;57.90
2995;DHT22;35277;49.890;8.222;2023-06-19T01:53:52;28.30;57.90
2995;DHT22;35277;49.890;8.222;2023-06-19T01:56:22;28.30;58.00
2995;DHT22;35277;49.890;8.222;2023-06-19T01:58:51;28.30;58.00
2995;DHT22;35277;49.890;8.222;2023-06-19T02:01:19;28.30;58.00
2995;DHT22;35277;49.890;8.222;2023-06-19T02:03:46;28.30;58.00
2995;DHT22;35277;49.890;8.222;2023-06-19T02:06:14;28.30;58.00
2995;DHT22;35277;49.890;8.222;2023-06-19T02:08:42;28.30;58.00
2995;DHT22;35277;49.890;8.222;2023-06-19T02:11:10;28.30;58.00
2995;DHT22;35277;49.890;8.222;2023-06-19T02:13:41;28.30;58.00
2995;DHT22;35277;49.890;8.222;2023-06-19T02:16:08;28.30;58.00
2995;DHT22;35277;49.890;8.222;2023-06-19T02:18:36;28.20;58.00
2995;DHT22;35277;49.890;8.222;2023-06-19T02:21:04;28.30;58.10
2995;DHT22;35277;49.890;8.222;2023-06-19T02:23:34;28.30;58.10
2995;DHT22;35277;49.890;8.222;2023-06-19T02:26:02;28.30;58.10
2995;DHT22;35277;49.890;8.222;2023-06-19T02:28:29;28.30;58.20
2995;DHT22;35277;49.890;8.222;2023-06-19T02:30:58;28.30;58.20
2995;DHT22;35277;49.890;8.222;2023-06-19T02:33:26;28.30;58.20
2995;DHT22;35277;49.890;8.222;2023-06-19T02:35:55;28.30;58.20
2995;DHT22;35277;49.890;8.222;2023-06-19T02:38:26;28.30;58.30
2995;DHT22;35277;49.890;8.222;2023-06-19T02:40:56;28.30;58.30
2995;DHT22;35277;49.890;8.222;2023-06-19T02:43:27;28.30;58.30
2995;DHT22;35277;49.890;8.222;2023-06-19T02:45:54;28.30;58.40
2995;DHT22;35277;49.890;8.222;2023-06-19T02:48:24;28.30;58.40
2995;DHT22;35277;49.890;8.222;2023-06-19T02:50:53;28.30;58.40
2995;DHT22;35277;49.890;8.222;2023-06-19T02:53:20;28.30;58.50
2995;DHT22;35277;49.890;8.222;2023-06-19T02:55:48;28.20;58.40
2995;DHT22;35277;49.890;8.222;2023-06-19T02:58:16;28.30;58.50
2995;DHT22;35277;49.890;8.222;2023-06-19T03:00:45;28.30;58.60
2995;DHT22;35277;49.890;8.222;2023-06-19T03:03:15;28.30;58.60
2995;DHT22;35277;49.890;8.222;2023-06-19T03:05:44;28.20;58.50
2995;DHT22;35277;49.890;8.222;2023-06-19T03:08:12;28.20;58.60
2995;DHT22;35277;49.890;8.222;2023-06-19T03:10:41;28.20;58.60
2995;DHT22;35277;49.890;8.222;2023-06-19T03:13:09;28.20;58.60
2995;DHT22;35277;49.890;8.222;2023-06-19T03:15:36;28.20;58.60
2995;DHT22;35277;49.890;8.222;2023-06-19T03:18:04;28.20;58.60
2995;DHT22;35277;49.890;8.222;2023-06-19T03:20:37;28.20;58.60
2995;DHT22;35277;49.890;8.222;2023-06-19T03:23:06;28.30;58.70
2995;DHT22;35277;49.890;8.222;2023-06-19T03:25:35;28.30;58.70
2995;DHT22;35277;49.890;8.222;2023-06-19T03:28:03;28.30;58.70
2995;DHT22;35277;49.890;8.222;2023-06-19T03:30:33;28.30;58.70
2995;DHT22;35277;49.890;8.222;2023-06-19T03:33:01;28.20;58.70
2995;DHT22;35277;49.890;8.222;2023-06-19T03:35:38;28.30;58.80
2995;DHT22;35277;49.890;8.222;2023-06-19T03:38:13;28.20;58.70
2995;DHT22;35277;49.890;8.222;2023-06-19T03:40:42;28.20;58.70
2995;DHT22;35277;49.890;8.222;2023-06-19T03:43:11;28.30;58.80
2995;DHT22;35277;49.890;8.222;2023-06-19T03:45:42;28.20;58.80
2995;DHT22;35277;49.890;8.222;2023-06-19T03:48:10;28.20;58.80
2995;DHT22;35277;49.890;8.222;2023-06-19T03:50:38;28.30;58.90
2995;DHT22;35277;49.890;8.222;2023-06-19T03:53:07;28.20;58.80
2995;DHT22;35277;49.890;8.222;2023-06-19T03:55:36;28.20;58.90
2995;DHT22;35277;49.890;8.222;2023-06-19T03:58:04;28.20;58.90
2995;DHT22;35277;49.890;8.222;2023-06-19T04:00:32;28.30;59.00
2995;DHT22;35277;49.890;8.222;2023-06-19T04:03:00;28.30;59.10
2995;DHT22;35277;49.890;8.222;2023-06-19T04:05:28;28.20;59.30
2995;DHT22;35277;49.890;8.222;2023-06-19T04:07:56;28.20;59.50
2995;DHT22;35277;49.890;8.222;2023-06-19T04:10:24;28.20;59.60
2995;DHT22;35277;49.890;8.222;2023-06-19T04:12:54;28.20;59.80
2995;DHT22;35277;49.890;8.222;2023-06-19T04:15:23;28.20;59.80
2995;DHT22;35277;49.890;8.222;2023-06-19T04:17:52;28.20;60.00
2995;DHT22;35277;49.890;8.222;2023-06-19T04:20:20;28.20;60.30
2995;DHT22;35277;49.890;8.222;2023-06-19T04:22:48;28.20;60.50
2995;DHT22;35277;49.890;8.222;2023-06-19T04:25:16;28.20;60.80
2995;DHT22;35277;49.890;8.222;2023-06-19T04:27:44;28.20;61.10
2995;DHT22;35277;49.890;8.222;2023-06-19T04:30:13;28.10;61.50
2995;DHT22;35277;49.890;8.222;2023-06-19T04:32:41;28.10;62.10
2995;DHT22;35277;49.890;8.222;2023-06-19T04:35:09;28.10;62.50
2995;DHT22;35277;49.890;8.222;2023-06-19T04:37:37;28.00;62.70
2995;DHT22;35277;49.890;8.222;2023-06-19T04:40:06;28.00;63.00
2995;DHT22;35277;49.890;8.222;2023-06-19T04:42:35;28.00;63.20
2995;DHT22;35277;49.890;8.222;2023-06-19T04:45:05;28.00;63.20
2995;DHT22;35277;49.890;8.222;2023-06-19T04:47:35;28.00;63.30
2995;DHT22;35277;49.890;8.222;2023-06-19T04:50:19;28.00;63.40
2995;DHT22;35277;49.890;8.222;2023-06-19T04:52:47;28.00;63.50
2995;DHT22;35277;49.890;8.222;2023-06-19T04:55:17;28.00;63.50
2995;DHT22;35277;49.890;8.222;2023-06-19T04:57:45;28.00;63.50
2995;DHT22;35277;49.890;8.222;2023-06-19T05:00:13;28.00;64.00
2995;DHT22;35277;49.890;8.222;2023-06-19T05:02:43;27.90;64.10
2995;DHT22;35277;49.890;8.222;2023-06-19T05:05:13;27.90;64.50
2995;DHT22;35277;49.890;8.222;2023-06-19T05:07:41;27.80;64.90
2995;DHT22;35277;49.890;8.222;2023-06-19T05:10:11;27.70;65.50
2995;DHT22;35277;49.890;8.222;2023-06-19T05:12:39;27.60;65.80
2995;DHT22;35277;49.890;8.222;2023-06-19T05:15:08;27.50;66.00
2995;DHT22;35277;49.890;8.222;2023-06-19T05:17:36;27.40;66.40
2995;DHT22;35277;49.890;8.222;2023-06-19T05:20:07;27.30;66.60
2995;DHT22;35277;49.890;8.222;2023-06-19T05:22:35;27.20;66.90
2995;DHT22;35277;49.890;8.222;2023-06-19T05:25:04;27.20;67.80
2995;DHT22;35277;49.890;8.222;2023-06-19T05:27:32;27.10;68.00
2995;DHT22;35277;49.890;8.222;2023-06-19T05:30:00;27.00;68.30
2995;DHT22;35277;49.890;8.222;2023-06-19T05:32:28;26.90;68.60
2995;DHT22;35277;49.890;8.222;2023-06-19T05:34:56;26.80;68.90
2995;DHT22;35277;49.890;8.222;2023-06-19T05:37:25;26.80;69.40
2995;DHT22;35277;49.890;8.222;2023-06-19T05:39:53;26.70;69.70
2995;DHT22;35277;49.890;8.222;2023-06-19T05:42:21;26.60;69.90
2995;DHT22;35277;49.890;8.222;2023-06-19T05:44:49;26.50;70.40
2995;DHT22;35277;49.890;8.222;2023-06-19T05:47:16;26.50;70.80
2995;DHT22;35277;49.890;8.222;2023-06-19T05:49:47;26.40;71.00
2995;DHT22;35277;49.890;8.222;2023-06-19T05:52:15;26.30;71.20
2995;DHT22;35277;49.890;8.222;2023-06-19T05:54:44;26.30;71.30
2995;DHT22;35277;49.890;8.222;2023-06-19T05:57:12;26.30;71.60
2995;DHT22;35277;49.890;8.222;2023-06-19T05:59:41;26.30;71.60
2995;DHT22;35277;49.890;8.222;2023-06-19T06:02:09;26.30;71.80
2995;DHT22;35277;49.890;8.222;2023-06-19T06:04:37;26.30;72.00
2995;DHT22;35277;49.890;8.222;2023-06-19T06:07:05;26.20;72.10
2995;DHT22;35277;49.890;8.222;2023-06-19T06:09:33;26.20;72.10
2995;DHT22;35277;49.890;8.222;2023-06-19T06:12:02;26.20;72.30
2995;DHT22;35277;49.890;8.222;2023-06-19T06:14:30;26.20;72.60
2995;DHT22;35277;49.890;8.222;2023-06-19T06:16:58;26.20;72.90
2995;DHT22;35277;49.890;8.222;2023-06-19T06:19:26;26.10;73.20
2995;DHT22;35277;49.890;8.222;2023-06-19T06:21:55;26.10;73.50
2995;DHT22;35277;49.890;8.222;2023-06-19T06:24:23;26.00;73.70
2995;DHT22;35277;49.890;8.222;2023-06-19T06:26:51;26.00;73.90
2995;DHT22;35277;49.890;8.222;2023-06-19T06:29:20;26.00;74.20
2995;DHT22;35277;49.890;8.222;2023-06-19T06:31:48;25.90;73.90
2995;DHT22;35277;49.890;8.222;2023-06-19T06:34:19;25.90;74.00
2995;DHT22;35277;49.890;8.222;2023-06-19T06:36:46;25.90;74.30
2995;DHT22;35277;49.890;8.222;2023-06-19T06:39:31;25.90;74.50
2995;DHT22;35277;49.890;8.222;2023-06-19T06:41:59;25.90;74.60
2995;DHT22;35277;49.890;8.222;2023-06-19T06:44:28;25.90;74.70
2995;DHT22;35277;49.890;8.222;2023-06-19T06:46:55;25.90;74.60
2995;DHT22;35277;49.890;8.222;2023-06-19T06:49:23;25.90;74.50
2995;DHT22;35277;49.890;8.222;2023-06-19T06:51:51;25.90;74.50
2995;DHT22;35277;49.890;8.222;2023-06-19T06:54:23;25.90;74.40
2995;DHT22;35277;49.890;8.222;2023-06-19T06:56:50;26.00;74.50
2995;DHT22;35277;49.890;8.222;2023-06-19T06:59:22;26.00;74.50
2995;DHT22;35277;49.890;8.222;2023-06-19T07:01:51;26.00;74.40
2995;DHT22;35277;49.890;8.222;2023-06-19T07:04:19;26.10;74.50
2995;DHT22;35277;49.890;8.222;2023-06-19T07:06:47;26.10;74.60
2995;DHT22;35277;49.890;8.222;2023-06-19T07:09:15;26.10;74.50
2995;DHT22;35277;49.890;8.222;2023-06-19T07:11:43;26.10;74.40
2995;DHT22;35277;49.890;8.222;2023-06-19T07:14:11;26.10;74.40
2995;DHT22;35277;49.890;8.222;2023-06-19T07:16:38;26.10;74.40
2995;DHT22;35277;49.890;8.222;2023-06-19T07:19:07;26.10;74.40
2995;DHT22;35277;49.890;8.222;2023-06-19T07:21:35;26.10;74.40
2995;DHT22;35277;49.890;8.222;2023-06-19T07:24:04;26.10;74.30
2995;DHT22;35277;49.890;8.222;2023-06-19T07:26:32;26.10;74.60
2995;DHT22;35277;49.890;8.222;2023-06-19T07:29:00;26.10;74.80
2995;DHT22;35277;49.890;8.222;2023-06-19T07:31:28;26.10;74.80
2995;DHT22;35277;49.890;8.222;2023-06-19T07:33:55;26.10;74.80
2995;DHT22;35277;49.890;8.222;2023-06-19T07:36:24;26.10;74.70
2995;DHT22;35277;49.890;8.222;2023-06-19T07:38:52;26.10;74.50
2995;DHT22;35277;49.890;8.222;2023-06-19T07:41:20;26.20;74.40
2995;DHT22;35277;49.890;8.222;2023-06-19T07:43:48;26.30;74.10
2995;DHT22;35277;49.890;8.222;2023-06-19T07:46:16;26.40;74.00
2995;DHT22;35277;49.890;8.222;2023-06-19T07:48:44;26.50;73.80
2995;DHT22;35277;49.890;8.222;2023-06-19T07:51:12;26.50;73.60
2995;DHT22;35277;49.890;8.222;2023-06-19T07:53:41;26.60;73.40
2995;DHT22;35277;49.890;8.222;2023-06-19T07:56:10;26.70;73.20
2995;DHT22;35277;49.890;8.222;2023-06-19T07:58:37;26.80;73.80
2995;DHT22;35277;49.890;8.222;2023-06-19T08:01:05;26.80;72.70
2995;DHT22;35277;49.890;8.222;2023-06-19T08:03:33;26.90;72.50
2995;DHT22;35277;49.890;8.222;2023-06-19T08:06:01;26.90;72.30
2995;DHT22;35277;49.890;8.222;2023-06-19T08:08:29;27.00;72.10
2995;DHT22;35277;49.890;8.222;2023-06-19T08:10:58;27.10;72.10
2995;DHT22;35277;49.890;8.222;2023-06-19T08:13:25;27.10;71.90
2995;DHT22;35277;49.890;8.222;2023-06-19T08:15:53;27.10;71.80
2995;DHT22;35277;49.890;8.222;2023-06-19T08:18:21;27.10;71.60
2995;DHT22;35277;49.890;8.222;2023-06-19T08:20:49;27.20;71.40
2995;DHT22;35277;49.890;8.222;2023-06-19T08:23:17;27.20;71.10
2995;DHT22;35277;49.890;8.222;2023-06-19T08:25:45;27.20;71.00
2995;DHT22;35277;49.890;8.222;2023-06-19T08:28:14;27.30;70.90
2995;DHT22;35277;49.890;8.222;2023-06-19T08:30:42;27.30;70.80
2995;DHT22;35277;49.890;8.222;2023-06-19T08:33:09;27.40;70.70
2995;DHT22;35277;49.890;8.222;2023-06-19T08:35:37;27.40;70.70
2995;DHT22;35277;49.890;8.222;2023-06-19T08:38:05;27.40;70.40
2995;DHT22;35277;49.890;8.222;2023-06-19T08:40:33;27.40;70.30
2995;DHT22;35277;49.890;8.222;2023-06-19T08:43:01;27.50;70.50
2995;DHT22;35277;49.890;8.222;2023-06-19T08:45:30;27.50;70.60
2995;DHT22;35277;49.890;8.222;2023-06-19T08:47:58;27.50;70.70
2995;DHT22;35277;49.890;8.222;2023-06-19T08:50:26;27.50;70.60
2995;DHT22;35277;49.890;8.222;2023-06-19T08:52:56;27.50;70.50
2995;DHT22;35277;49.890;8.222;2023-06-19T08:55:24;27.50;70.20
2995;DHT22;35277;49.890;8.222;2023-06-19T08:57:52;27.60;70.20
2995;DHT22;35277;49.890;8.222;2023-06-19T09:00:24;27.60;70.20
2995;DHT22;35277;49.890;8.222;2023-06-19T09:03:00;27.60;71.10
2995;DHT22;35277;49.890;8.222;2023-06-19T09:05:41;27.60;70.30
2995;DHT22;35277;49.890;8.222;2023-06-19T09:08:16;27.60;70.30
2995;DHT22;35277;49.890;8.222;2023-06-19T09:10:55;27.60;70.20
2995;DHT22;35277;49.890;8.222;2023-06-19T09:13:23;27.60;70.10
2995;DHT22;35277;49.890;8.222;2023-06-19T09:15:58;27.60;70.00
2995;DHT22;35277;49.890;8.222;2023-06-19T09:18:29;27.60;69.90
2995;DHT22;35277;49.890;8.222;2023-06-19T09:20:57;27.70;69.90
2995;DHT22;35277;49.890;8.222;2023-06-19T09:23:26;27.70;69.80
2995;DHT22;35277;49.890;8.222;2023-06-19T09:25:58;27.70;69.70
2995;DHT22;35277;49.890;8.222;2023-06-19T09:28:29;27.70;69.60
2995;DHT22;35277;49.890;8.222;2023-06-19T09:30:59;27.70;69.40
2995;DHT22;35277;49.890;8.222;2023-06-19T09:33:31;27.70;69.30
2995;DHT22;35277;49.890;8.222;2023-06-19T09:36:01;27.80;69.30
2995;DHT22;35277;49.890;8.222;2023-06-19T09:38:32;27.80;69.20
2995;DHT22;35277;49.890;8.222;2023-06-19T09:41:02;27.80;69.10
2995;DHT22;35277;49.890;8.222;2023-06-19T09:43:33;27.80;69.10
2995;DHT22;35277;49.890;8.222;2023-06-19T09:46:03;27.80;69.10
2995;DHT22;35277;49.890;8.222;2023-06-19T09:48:33;27.80;69.10
2995;DHT22;35277;49.890;8.222;2023-06-19T09:51:10;27.80;69.00
2995;DHT22;35277;49.890;8.222;2023-06-19T09:53:39;27.90;69.10
2995;DHT22;35277;49.890;8.222;2023-06-19T09:56:08;27.90;69.10
2995;DHT22;35277;49.890;8.222;2023-06-19T09:58:37;27.90;69.00
2995;DHT22;35277;49.890;8.222;2023-06-19T10:01:05;27.90;69.00
2995;DHT22;35277;49.890;8.222;2023-06-19T10:03:36;27.90;69.00
2995;DHT22;35277;49.890;8.222;2023-06-19T10:06:04;27.90;68.90
2995;DHT22;35277;49.890;8.222;2023-06-19T10:08:39;27.90;68.90
2995;DHT22;35277;49.890;8.222;2023-06-19T10:11:07;28.00;69.00
2995;DHT22;35277;49.890;8.222;2023-06-19T10:13:36;28.00;69.00
2995;DHT22;35277;49.890;8.222;2023-06-19T10:16:05;28.00;69.00
2995;DHT22;35277;49.890;8.222;2023-06-19T10:18:45;28.00;69.00
2995;DHT22;35277;49.890;8.222;2023-06-19T10:21:16;28.00;69.10
2995;DHT22;35277;49.890;8.222;2023-06-19T10:23:53;28.00;69.00
2995;DHT22;35277;49.890;8.222;2023-06-19T10:26:30;28.10;69.10
2995;DHT22;35277;49.890;8.222;2023-06-19T10:28:57;28.10;69.00
2995;DHT22;35277;49.890;8.222;2023-06-19T10:31:25;28.10;68.90
2995;DHT22;35277;49.890;8.222;2023-06-19T10:33:57;28.10;68.90
2995;DHT22;35277;49.890;8.222;2023-06-19T10:36:24;28.10;68.80
2995;DHT22;35277;49.890;8.222;2023-06-19T10:38:53;28.20;68.80
2995;DHT22;35277;49.890;8.222;2023-06-19T10:41:23;28.20;68.80
2995;DHT22;35277;49.890;8.222;2023-06-19T10:43:57;28.20;68.70
2995;DHT22;35277;49.890;8.222;2023-06-19T10:46:29;28.20;68.70
2995;DHT22;35277;49.890;8.222;2023-06-19T10:48:59;28.20;68.60
2995;DHT22;35277;49.890;8.222;2023-06-19T10:51:28;28.20;68.50
2995;DHT22;35277;49.890;8.222;2023-06-19T10:53:57;28.20;68.40
2995;DHT22;35277;49.890;8.222;2023-06-19T10:56:25;28.20;68.30
2995;DHT22;35277;49.890;8.222;2023-06-19T10:59:00;28.20;68.20
2995;DHT22;35277;49.890;8.222;2023-06-19T11:01:32;28.20;68.20
2995;DHT22;35277;49.890;8.222;2023-06-19T11:04:04;28.20;68.10
2995;DHT22;35277;49.890;8.222;2023-06-19T11:06:32;28.20;68.10
2995;DHT22;35277;49.890;8.222;2023-06-19T11:09:04;28.20;68.00
2995;DHT22;35277;49.890;8.222;2023-06-19T11:11:38;28.20;67.90
2995;DHT22;35277;49.890;8.222;2023-06-19T11:14:07;28.20;67.90
2995;DHT22;35277;49.890;8.222;2023-06-19T11:16:38;28.20;67.80
2995;DHT22;35277;49.890;8.222;2023-06-19T11:19:09;28.20;67.80
2995;DHT22;35277;49.890;8.222;2023-06-19T11:21:37;28.20;67.80
2995;DHT22;35277;49.890;8.222;2023-06-19T11:24:10;28.20;67.80
2995;DHT22;35277;49.890;8.222;2023-06-19T11:26:38;28.20;67.70
2995;DHT22;35277;49.890;8.222;2023-06-19T11:29:14;28.20;67.60
2995;DHT22;35277;49.890;8.222;2023-06-19T11:31:42;28.30;67.80
2995;DHT22;35277;49.890;8.222;2023-06-19T11:34:11;28.30;68.10
2995;DHT22;35277;49.890;8.222;2023-06-19T11:36:41;28.30;68.50
2995;DHT22;35277;49.890;8.222;2023-06-19T11:39:10;28.30;68.80
2995;DHT22;35277;49.890;8.222;2023-06-19T11:41:40;28.40;69.10
2995;DHT22;35277;49.890;8.222;2023-06-19T11:44:08;28.40;69.20
2995;DHT22;35277;49.890;8.222;2023-06-19T11:46:37;28.40;69.20
2995;DHT22;35277;49.890;8.222;2023-06-19T11:49:09;28.50;69.00
2995;DHT22;35277;49.890;8.222;2023-06-19T11:51:39;28.50;68.80
2995;DHT22;35277;49.890;8.222;2023-06-19T11:54:07;28.50;68.60
2995;DHT22;35277;49.890;8.222;2023-06-19T11:56:35;28.50;68.50
2995;DHT22;35277;49.890;8.222;2023-06-19T11:59:03;28.50;68.30
2995;DHT22;35277;49.890;8.222;2023-06-19T12:01:31;28.50;68.20
2995;DHT22;35277;49.890;8.222;2023-06-19T12:03:59;28.50;68.00
2995;DHT22;35277;49.890;8.222;2023-06-19T12:06:28;28.60;67.80
2995;DHT22;35277;49.890;8.222;2023-06-19T12:08:57;28.60;67.70
2995;DHT22;35277;49.890;8.222;2023-06-19T12:11:25;28.60;67.40
2995;DHT22;35277;49.890;8.222;2023-06-19T12:13:53;28.60;67.20
2995;DHT22;35277;49.890;8.222;2023-06-19T12:16:22;28.60;67.10
2995;DHT22;35277;49.890;8.222;2023-06-19T12:18:50;28.60;67.00
2995;DHT22;35277;49.890;8.222;2023-06-19T12:21:18;28.60;66.90
2995;DHT22;35277;49.890;8.222;2023-06-19T12:24:05;28.60;66.80
2995;DHT22;35277;49.890;8.222;2023-06-19T12:26:34;28.60;66.60
2995;DHT22;35277;49.890;8.222;2023-06-19T12:29:03;28.60;66.50
2995;DHT22;35277;49.890;8.222;2023-06-19T12:31:31;28.60;66.40
2995;DHT22;35277;49.890;8.222;2023-06-19T12:34:00;28.60;66.30
2995;DHT22;35277;49.890;8.222;2023-06-19T12:36:46;28.60;66.20
2995;DHT22;35277;49.890;8.222;2023-06-19T12:39:15;28.60;66.10
2995;DHT22;35277;49.890;8.222;2023-06-19T12:41:43;28.60;66.00
2995;DHT22;35277;49.890;8.222;2023-06-19T12:44:11;28.60;65.90
2995;DHT22;35277;49.890;8.222;2023-06-19T12:46:39;28.60;65.80
2995;DHT22;35277;49.890;8.222;2023-06-19T12:49:07;28.60;65.70
2995;DHT22;35277;49.890;8.222;2023-06-19T12:51:35;28.70;65.60
2995;DHT22;35277;49.890;8.222;2023-06-19T12:54:03;28.70;65.40
2995;DHT22;35277;49.890;8.222;2023-06-19T12:56:32;28.70;65.20
2995;DHT22;35277;49.890;8.222;2023-06-19T12:59:00;28.60;65.00
2995;DHT22;35277;49.890;8.222;2023-06-19T13:01:27;28.70;65.00
2995;DHT22;35277;49.890;8.222;2023-06-19T13:03:55;28.70;64.90
2995;DHT22;35277;49.890;8.222;2023-06-19T13:06:23;28.60;64.70
2995;DHT22;35277;49.890;8.222;2023-06-19T13:08:51;28.70;64.70
2995;DHT22;35277;49.890;8.222;2023-06-19T13:11:19;28.70;64.60
2995;DHT22;35277;49.890;8.222;2023-06-19T13:13:48;28.70;64.30
2995;DHT22;35277;49.890;8.222;2023-06-19T13:16:16;28.70;64.10
2995;DHT22;35277;49.890;8.222;2023-06-19T13:18:56;28.70;64.00
2995;DHT22;35277;49.890;8.222;2023-06-19T13:21:23;28.70;64.00
2995;DHT22;35277;49.890;8.222;2023-06-19T13:23:51;28.70;63.80
2995;DHT22;35277;49.890;8.222;2023-06-19T13:26:19;28.70;63.70
2995;DHT22;35277;49.890;8.222;2023-06-19T13:28:48;28.70;63.50
2995;DHT22;35277;49.890;8.222;2023-06-19T13:31:16;28.70;63.40
2995;DHT22;35277;49.890;8.222;2023-06-19T13:33:44;28.70;63.20
2995;DHT22;35277;49.890;8.222;2023-06-19T13:36:12;28.70;63.10
2995;DHT22;35277;49.890;8.222;2023-06-19T13:38:39;28.70;63.10
2995;DHT22;35277;49.890;8.222;2023-06-19T13:41:10;28.70;63.00
2995;DHT22;35277;49.890;8.222;2023-06-19T13:43:38;28.60;62.90
2995;DHT22;35277;49.890;8.222;2023-06-19T13:46:08;28.60;62.80
2995;DHT22;35277;49.890;8.222;2023-06-19T13:48:36;28.60;62.70
2995;DHT22;35277;49.890;8.222;2023-06-19T13:51:04;28.60;62.70
2995;DHT22;35277;49.890;8.222;2023-06-19T13:53:32;28.60;62.60
2995;DHT22;35277;49.890;8.222;2023-06-19T13:55:59;28.60;62.60
2995;DHT22;35277;49.890;8.222;2023-06-19T13:58:27;28.60;62.50
2995;DHT22;35277;49.890;8.222;2023-06-19T14:00:55;28.60;62.40
2995;DHT22;35277;49.890;8.222;2023-06-19T14:03:24;28.60;62.40
2995;DHT22;35277;49.890;8.222;2023-06-19T14:05:52;28.60;62.30
2995;DHT22;35277;49.890;8.222;2023-06-19T14:08:20;28.60;62.20
2995;DHT22;35277;49.890;8.222;2023-06-19T14:10:48;28.60;62.10
2995;DHT22;35277;49.890;8.222;2023-06-19T14:13:16;28.60;62.00
2995;DHT22;35277;49.890;8.222;2023-06-19T14:15:44;28.60;62.00
2995;DHT22;35277;49.890;8.222;2023-06-19T14:18:11;28.60;62.00
2995;DHT22;35277;49.890;8.222;2023-06-19T14:20:40;28.60;61.90
2995;DHT22;35277;49.890;8.222;2023-06-19T14:23:08;28.60;61.90
2995;DHT22;35277;49.890;8.222;2023-06-19T14:25:36;28.60;61.90
2995;DHT22;35277;49.890;8.222;2023-06-19T14:28:09;28.60;61.90
2995;DHT22;35277;49.890;8.222;2023-06-19T14:30:37;28.50;61.90
2995;DHT22;35277;49.890;8.222;2023-06-19T14:33:04;28.50;62.00
2995;DHT22;35277;49.890;8.222;2023-06-19T14:35:33;28.50;62.00
2995;DHT22;35277;49.890;8.222;2023-06-19T14:38:02;28.50;62.00
2995;DHT22;35277;49.890;8.222;2023-06-19T14:40:30;28.50;62.10
2995;DHT22;35277;49.890;8.222;2023-06-19T14:42:58;28.50;62.10
2995;DHT22;35277;49.890;8.222;2023-06-19T14:45:26;28.50;62.20
2995;DHT22;35277;49.890;8.222;2023-06-19T14:47:54;28.50;62.20
2995;DHT22;35277;49.890;8.222;2023-06-19T14:50:21;28.50;62.30
2995;DHT22;35277;49.890;8.222;2023-06-19T14:52:50;28.50;62.30
2995;DHT22;35277;49.890;8.222;2023-06-19T14:55:19;28.50;62.40
2995;DHT22;35277;49.890;8.222;2023-06-19T14:57:46;28.50;62.50
2995;DHT22;35277;49.890;8.222;2023-06-19T15:00:15;28.50;62.50
2995;DHT22;35277;49.890;8.222;2023-06-19T15:02:42;28.50;62.60
2995;DHT22;35277;49.890;8.222;2023-06-19T15:05:10;28.50;62.60
2995;DHT22;35277;49.890;8.222;2023-06-19T15:07:38;28.50;62.70
2995;DHT22;35277;49.890;8.222;2023-06-19T15:10:06;28.40;62.60
2995;DHT22;35277;49.890;8.222;2023-06-19T15:12:36;28.40;62.70
2995;DHT22;35277;49.890;8.222;2023-06-19T15:15:05;28.40;62.80
2995;DHT22;35277;49.890;8.222;2023-06-19T15:17:33;28.40;62.90
2995;DHT22;35277;49.890;8.222;2023-06-19T15:20:01;28.40;63.00
2995;DHT22;35277;49.890;8.222;2023-06-19T15:22:29;28.40;63.00
2995;DHT22;35277;49.890;8.222;2023-06-19T15:24:57;28.40;63.10
2995;DHT22;35277;49.890;8.222;2023-06-19T15:27:25;28.40;63.20
2995;DHT22;35277;49.890;8.222;2023-06-19T15:29:54;28.40;63.20
2995;DHT22;35277;49.890;8.222;2023-06-19T15:32:22;28.40;63.20
2995;DHT22;35277;49.890;8.222;2023-06-19T15:34:49;28.40;63.30
2995;DHT22;35277;49.890;8.222;2023-06-19T15:37:17;28.40;63.30
2995;DHT22;35277;49.890;8.222;2023-06-19T15:39:45;28.40;63.40
2995;DHT22;35277;49.890;8.222;2023-06-19T15:42:13;28.40;63.50
2995;DHT22;35277;49.890;8.222;2023-06-19T15:44:40;28.40;63.50
2995;DHT22;35277;49.890;8.222;2023-06-19T15:47:09;28.40;63.60
2995;DHT22;35277;49.890;8.222;2023-06-19T15:49:37;28.40;63.70
2995;DHT22;35277;49.890;8.222;2023-06-19T15:52:05;28.40;63.70
2995;DHT22;35277;49.890;8.222;2023-06-19T15:54:33;28.40;63.70
2995;DHT22;35277;49.890;8.222;2023-06-19T15:57:01;28.40;63.70